Home   Weather   Nanbu   Past weeks
Flag for China

Past Weather in Nanbu, Shanghai Municipality, China — Yesterday and Last 2 Weeks

Currently: 70 °F. Passing clouds. (Weather station: Shanghai Hongqiao Airport, China). See more current weather

Past Weather in Nanbu — Graph

°F

Nanbu Temperature Yesterday

Maximum temperature yesterday: 73 °F (at 11:30 am)
Minimum temperature yesterday: 66 °F (at 1:30 am)
Average temperature yesterday: 70 °F

High & Low Weather Summary for the Past Weeks

 TemperatureHumidityPressure
High88 °F (May 6, 2:00 pm)100% (May 12, 7:30 pm)30.09 "Hg (May 12, 7:30 pm)
Low54 °F (May 14, 4:30 am)17% (May 18, 3:30 pm)29.80 "Hg (May 13, 12:30 am)
Average68 °F62%29.97 "Hg
* Reported May 5 10:00 am — May 20 10:30 am, Nanbu. Weather by CustomWeather, © 2022

Note: Actual official high and low records may vary slightly from our data, if they occured in-between our weather recording intervals... More about our weather records

Nanbu Weather History for the Previous 24 Hours

Scroll right to see more
 ConditionsComfort  
Time TempWeatherWind HumidityBarometerVisibility
10:30 am
Fri, May 20
70 °FSunny.6 mph78%29.92 "Hg10 mi
10:00 am70 °FSunny.6 mph78%29.92 "Hg10 mi
9:30 am68 °FSunny.8 mph83%29.92 "Hg10 mi
9:00 am68 °FSunny.6 mph83%29.92 "Hg10 mi
7:30 am66 °FSunny.3 mph83%29.92 "Hg10 mi
7:00 am66 °FPassing clouds.3 mph83%29.92 "HgN/A
6:30 am64 °FSunny.6 mph88%29.92 "Hg10 mi
6:00 am64 °FSunny.6 mph88%29.92 "Hg10 mi
5:30 am64 °FSunny.1 mph88%29.92 "Hg10 mi
5:00 am64 °FSunny.1 mph88%29.89 "Hg10 mi
4:30 am64 °FClear.1 mph83%29.89 "Hg10 mi
3:30 am64 °FClear.1 mph88%29.92 "Hg10 mi
3:00 am63 °FClear.3 mph88%29.92 "Hg10 mi
2:30 am63 °FLight rain. Clear.3 mph88%29.92 "HgN/A
2:00 am64 °FLight rain. Clear.6 mph88%29.92 "HgN/A
1:30 am64 °FLight rain. Clear.6 mph83%29.92 "HgN/A
1:00 am64 °FLight rain. Clear.1 mph83%29.92 "HgN/A
12:30 am66 °FLight rain. Clear.6 mph78%29.95 "HgN/A
12:00 am66 °FLight rain. Clear.3 mph83%29.95 "HgN/A
11:30 pm
Thu, May 19
66 °FLight rain. Clear.3 mph83%29.98 "HgN/A
11:00 pm68 °FLight rain. Clear.3 mph83%29.98 "HgN/A
10:30 pm68 °FLight rain. Clear.3 mph83%29.98 "HgN/A
10:00 pm68 °FLight rain. Clear.6 mph78%29.98 "HgN/A
9:30 pm70 °FLight rain. Clear.6 mph73%29.98 "HgN/A
8:30 pm70 °FLight rain. Clear.6 mph69%29.98 "HgN/A
8:00 pm70 °FLight rain. Clear.8 mph69%29.98 "HgN/A
7:30 pm70 °FClear.6 mph64%29.95 "Hg10 mi
7:00 pm72 °FPassing clouds.6 mph61%29.95 "HgN/A
6:30 pm72 °FPassing clouds.6 mph61%29.95 "HgN/A
6:00 pm72 °FSunny.8 mph57%29.95 "Hg10 mi
5:30 pm72 °FSunny.8 mph57%29.95 "Hg10 mi
5:00 pm72 °FSunny.8 mph61%29.95 "Hg10 mi
4:30 pm72 °FSunny.8 mph65%29.95 "Hg10 mi
4:00 pm72 °FSunny.10 mph61%29.95 "Hg10 mi
3:30 pm72 °FSunny.13 mph57%29.98 "Hg10 mi
3:00 pm73 °FPassing clouds.10 mph57%29.98 "HgN/A
2:30 pm72 °FSunny.13 mph61%29.98 "Hg10 mi
2:00 pm73 °FSunny.13 mph57%29.98 "Hg10 mi
1:30 pm73 °FSunny.10 mph57%30.01 "Hg10 mi
1:00 pm73 °FSunny.8 mph57%30.01 "Hg10 mi
12:30 pm73 °FSunny.8 mph57%30.01 "Hg10 mi
12:00 pm72 °FSunny.10 mph61%30.01 "Hg10 mi
Weather by CustomWeather, © 2022

See weather overview